createdAt,value
2022-12-18T00:01:53.474Z,48
2022-12-18T00:22:09.425Z,48
2022-12-18T00:41:48.463Z,47
2022-12-18T01:01:49.190Z,47
2022-12-18T01:21:47.316Z,47
2022-12-18T01:41:47.492Z,46
2022-12-18T02:01:48.699Z,46
2022-12-18T02:22:32.071Z,46
2022-12-18T02:41:48.009Z,46
2022-12-18T03:01:48.831Z,45
2022-12-18T03:22:11.210Z,45
2022-12-18T03:42:11.193Z,45
2022-12-18T04:02:10.907Z,45
2022-12-18T04:21:47.827Z,45
2022-12-18T04:41:48.951Z,45
2022-12-18T05:02:09.412Z,45
2022-12-18T05:21:48.077Z,45
2022-12-18T05:41:47.522Z,45
2022-12-18T06:42:10.398Z,44
2022-12-18T07:02:11.099Z,44
2022-12-18T07:21:47.871Z,44
2022-12-18T07:41:47.854Z,44
2022-12-18T08:01:48.022Z,44
2022-12-18T08:22:52.609Z,45
2022-12-18T08:41:48.246Z,47
2022-12-18T09:02:10.260Z,47
2022-12-18T09:22:09.850Z,49
2022-12-18T09:41:47.376Z,49
2022-12-18T10:01:48.424Z,49
2022-12-18T10:21:48.711Z,49
2022-12-18T10:41:48.203Z,48
2022-12-18T11:01:48.538Z,49
2022-12-18T11:21:47.990Z,49
2022-12-18T11:42:14.858Z,50
2022-12-18T12:01:48.145Z,48
2022-12-18T12:21:48.374Z,49
2022-12-18T12:42:34.921Z,49
2022-12-18T13:01:48.296Z,48
2022-12-18T13:21:48.882Z,48
2022-12-18T13:41:47.747Z,48
2022-12-18T14:02:10.586Z,49
2022-12-18T14:21:48.750Z,48
2022-12-18T14:42:31.628Z,49
2022-12-18T15:01:48.468Z,49
2022-12-18T15:21:49.267Z,49
2022-12-18T15:41:48.157Z,50
2022-12-18T16:01:49.164Z,51
2022-12-18T16:22:10.404Z,51
2022-12-18T16:42:10.042Z,51
2022-12-18T17:02:32.311Z,50
2022-12-18T17:22:32.914Z,50
2022-12-18T17:42:18.988Z,51
2022-12-18T18:02:09.845Z,51
2022-12-18T18:21:48.246Z,52
2022-12-18T18:41:48.784Z,52
2022-12-18T19:02:10.265Z,52
2022-12-18T19:21:48.486Z,52
2022-12-18T19:42:09.898Z,51
2022-12-18T20:01:48.551Z,51
2022-12-18T20:21:48.528Z,51
2022-12-18T20:42:32.078Z,50
2022-12-18T21:02:32.624Z,50
2022-12-18T21:22:09.923Z,50
2022-12-18T21:42:10.870Z,49
2022-12-18T22:01:48.020Z,49
2022-12-18T22:22:08.841Z,49
2022-12-18T22:41:47.851Z,49
2022-12-18T23:06:46.895Z,48
2022-12-18T23:26:14.259Z,48
2022-12-18T23:43:59.848Z,48
